createdAt,value
2022-08-26T00:00:20.730Z,11.10
2022-08-26T00:01:29.173Z,11.60
2022-08-26T00:02:20.823Z,11.90
2022-08-26T00:03:20.699Z,11.40
2022-08-26T00:04:20.737Z,13.00
2022-08-26T00:05:20.679Z,12.70
2022-08-26T00:06:20.812Z,13.40
2022-08-26T00:07:20.659Z,12.40
2022-08-26T00:08:20.642Z,13.90
2022-08-26T00:09:20.634Z,11.70
2022-08-26T00:10:20.622Z,10.90
2022-08-26T00:11:26.778Z,13.80
2022-08-26T00:12:20.600Z,11.90
2022-08-26T00:13:20.588Z,11.60
2022-08-26T00:14:20.574Z,12.70
2022-08-26T00:15:20.565Z,12.20
2022-08-26T00:16:20.624Z,13.00
2022-08-26T00:17:20.543Z,11.60
2022-08-26T00:18:22.387Z,14.70
2022-08-26T00:19:20.518Z,12.00
2022-08-26T00:20:20.511Z,11.60
2022-08-26T00:21:20.491Z,12.80
2022-08-26T00:22:21.592Z,11.50
2022-08-26T00:23:20.472Z,13.80
2022-08-26T00:24:20.468Z,13.90
2022-08-26T00:25:20.448Z,13.20
2022-08-26T00:26:20.442Z,11.70
2022-08-26T00:27:20.425Z,14.50
2022-08-26T00:28:20.411Z,11.40
2022-08-26T00:29:21.373Z,12.50
2022-08-26T00:30:21.393Z,11.40
2022-08-26T00:31:20.406Z,17.00
2022-08-26T00:32:20.373Z,11.60
2022-08-26T00:33:20.360Z,13.00
2022-08-26T00:34:20.347Z,12.70
2022-08-26T00:35:20.335Z,12.00
2022-08-26T00:36:20.669Z,12.90
2022-08-26T00:37:20.310Z,12.60
2022-08-26T00:38:20.302Z,12.80
2022-08-26T00:39:20.360Z,12.90
2022-08-26T00:40:20.302Z,12.20
2022-08-26T00:41:20.267Z,12.20
2022-08-26T00:42:20.256Z,12.80
2022-08-26T00:43:20.241Z,12.80
2022-08-26T00:44:20.234Z,14.50
2022-08-26T00:45:20.219Z,12.50
2022-08-26T00:46:20.212Z,13.30
2022-08-26T00:47:20.193Z,12.80
2022-08-26T00:48:20.188Z,12.80
2022-08-26T00:49:20.173Z,13.00
2022-08-26T00:50:20.161Z,13.40
2022-08-26T00:51:20.149Z,13.30
2022-08-26T00:52:20.141Z,14.20
2022-08-26T00:53:20.127Z,13.60
2022-08-26T00:54:20.117Z,13.50
2022-08-26T00:55:20.537Z,13.40
2022-08-26T00:56:20.095Z,12.60
2022-08-26T00:57:20.078Z,13.40
2022-08-26T00:58:20.069Z,13.40
2022-08-26T00:59:20.056Z,13.40
2022-08-26T01:00:20.044Z,12.90
2022-08-26T01:01:23.030Z,13.40
2022-08-26T01:02:21.461Z,13.10
2022-08-26T01:03:20.014Z,14.50
2022-08-26T01:04:20.002Z,12.80
2022-08-26T01:05:19.990Z,14.90
2022-08-26T01:06:19.980Z,13.20
2022-08-26T01:07:19.965Z,14.00
2022-08-26T01:08:19.954Z,12.90
2022-08-26T01:09:19.937Z,13.90
2022-08-26T01:10:19.932Z,13.30
2022-08-26T01:11:19.913Z,13.50
2022-08-26T01:12:22.128Z,14.90
2022-08-26T01:13:20.159Z,13.90
2022-08-26T01:14:20.221Z,14.50
2022-08-26T01:15:19.871Z,13.10
2022-08-26T01:16:19.902Z,14.20
2022-08-26T01:17:19.850Z,14.50
2022-08-26T01:18:19.835Z,12.70
2022-08-26T01:19:19.825Z,14.10
2022-08-26T01:20:19.806Z,13.20
2022-08-26T01:21:19.797Z,13.90
2022-08-26T01:22:19.787Z,14.70
2022-08-26T01:23:19.773Z,15.50
2022-08-26T01:24:19.760Z,13.40
2022-08-26T01:25:19.754Z,13.40
2022-08-26T01:26:20.187Z,15.00
2022-08-26T01:27:19.732Z,13.40
2022-08-26T01:28:19.717Z,14.30
2022-08-26T01:29:20.224Z,14.60
2022-08-26T01:30:19.693Z,13.30
2022-08-26T01:31:19.797Z,15.90
2022-08-26T01:32:19.666Z,13.40
2022-08-26T01:33:19.660Z,14.20
2022-08-26T01:34:19.715Z,14.60
2022-08-26T01:35:19.637Z,13.90
2022-08-26T01:36:19.625Z,13.60
2022-08-26T01:37:19.607Z,13.70
2022-08-26T01:38:19.599Z,15.70
2022-08-26T01:39:19.585Z,16.70
2022-08-26T01:40:19.610Z,16.40
2022-08-26T01:41:20.261Z,13.90
2022-08-26T01:42:19.547Z,13.20
2022-08-26T01:43:19.536Z,15.40
2022-08-26T01:44:19.527Z,13.10
2022-08-26T01:45:19.509Z,14.70
2022-08-26T01:46:19.498Z,14.10
2022-08-26T01:47:19.489Z,13.70
2022-08-26T01:48:19.478Z,14.10
2022-08-26T01:49:19.465Z,13.20
2022-08-26T01:50:27.647Z,13.20
2022-08-26T01:51:19.442Z,15.00
2022-08-26T01:52:19.427Z,12.60
2022-08-26T01:53:19.422Z,13.20
2022-08-26T01:54:20.579Z,12.60
2022-08-26T01:55:33.039Z,13.00
2022-08-26T01:56:19.384Z,13.80
2022-08-26T01:57:19.374Z,13.20
2022-08-26T01:58:19.361Z,12.60
2022-08-26T01:59:19.345Z,14.40
2022-08-26T02:00:19.339Z,12.90
2022-08-26T02:01:19.397Z,13.80
2022-08-26T02:02:19.310Z,13.10
2022-08-26T02:03:19.300Z,13.70
2022-08-26T02:04:19.333Z,14.80
2022-08-26T02:05:19.278Z,16.20
2022-08-26T02:06:19.265Z,14.80
2022-08-26T02:07:19.256Z,14.30
2022-08-26T02:08:24.692Z,15.30
2022-08-26T02:09:19.224Z,15.10
2022-08-26T02:10:19.721Z,16.20
2022-08-26T02:11:19.200Z,13.80
2022-08-26T02:12:19.190Z,13.50
2022-08-26T02:13:19.182Z,12.70
2022-08-26T02:14:19.164Z,15.30
2022-08-26T02:15:19.156Z,14.30
2022-08-26T02:16:19.175Z,13.00
2022-08-26T02:17:19.134Z,15.60
2022-08-26T02:18:19.119Z,15.60
2022-08-26T02:19:19.105Z,13.30
2022-08-26T02:20:19.098Z,14.00
2022-08-26T02:21:19.082Z,13.90
2022-08-26T02:22:19.066Z,14.80
2022-08-26T02:23:19.057Z,16.10
2022-08-26T02:24:19.048Z,16.50
2022-08-26T02:25:19.034Z,15.30
2022-08-26T02:26:19.374Z,13.80
2022-08-26T02:27:19.006Z,16.50
2022-08-26T02:28:19.833Z,14.80
2022-08-26T02:29:18.983Z,19.30
2022-08-26T02:30:19.026Z,13.90
2022-08-26T02:31:18.966Z,14.10
2022-08-26T02:32:18.947Z,14.40
2022-08-26T02:33:18.939Z,14.40
2022-08-26T02:34:18.925Z,15.50
2022-08-26T02:35:20.305Z,14.60
2022-08-26T02:36:18.904Z,15.10
2022-08-26T02:37:18.887Z,14.20
2022-08-26T02:38:18.877Z,14.20
2022-08-26T02:39:22.313Z,15.00
2022-08-26T02:40:18.909Z,14.80
2022-08-26T02:41:18.841Z,14.40
2022-08-26T02:42:18.828Z,14.50
2022-08-26T02:43:18.821Z,16.80
2022-08-26T02:44:18.804Z,15.80
2022-08-26T02:45:23.273Z,15.00
2022-08-26T02:46:21.563Z,15.30
2022-08-26T02:47:18.762Z,15.80
2022-08-26T02:48:18.964Z,14.60
2022-08-26T02:49:18.741Z,15.10
2022-08-26T02:50:18.730Z,14.40
2022-08-26T02:51:18.717Z,14.80
2022-08-26T02:52:18.703Z,15.80
2022-08-26T02:53:24.510Z,15.00
2022-08-26T02:54:18.679Z,15.20
2022-08-26T02:55:18.666Z,13.70
2022-08-26T02:56:18.658Z,17.00
2022-08-26T02:57:18.648Z,15.40
2022-08-26T02:58:18.629Z,14.50
2022-08-26T02:59:18.615Z,14.80
2022-08-26T03:00:18.607Z,14.80
2022-08-26T03:01:18.648Z,15.30
2022-08-26T03:02:18.612Z,14.70
2022-08-26T03:03:18.570Z,14.30
2022-08-26T03:04:18.561Z,14.00
2022-08-26T03:05:18.545Z,14.80
2022-08-26T03:06:18.534Z,14.20
2022-08-26T03:07:18.518Z,14.50
2022-08-26T03:08:18.509Z,15.80
2022-08-26T03:09:18.911Z,15.20
2022-08-26T03:10:18.485Z,14.50
2022-08-26T03:11:18.471Z,16.10
2022-08-26T03:12:18.462Z,15.00
2022-08-26T03:13:18.446Z,16.20
2022-08-26T03:14:18.435Z,15.30
2022-08-26T03:15:18.594Z,14.90
2022-08-26T03:16:18.553Z,15.40
2022-08-26T03:17:18.398Z,15.60
2022-08-26T03:18:18.382Z,15.80
2022-08-26T03:19:18.370Z,18.20
2022-08-26T03:20:18.364Z,18.30
2022-08-26T03:21:18.358Z,16.30
2022-08-26T03:22:18.333Z,16.40
2022-08-26T03:23:18.549Z,16.50
2022-08-26T03:24:18.309Z,16.00
2022-08-26T03:25:18.301Z,17.10
2022-08-26T03:26:18.285Z,17.80
2022-08-26T03:27:18.272Z,17.00
2022-08-26T03:28:18.259Z,16.80
2022-08-26T03:29:18.244Z,15.80
2022-08-26T03:30:18.234Z,20.40
2022-08-26T03:31:18.286Z,18.10
2022-08-26T03:32:18.213Z,17.80
2022-08-26T03:33:18.198Z,16.60
2022-08-26T03:34:18.200Z,17.00
2022-08-26T03:35:18.173Z,16.80
2022-08-26T03:36:18.164Z,17.60
2022-08-26T03:37:18.148Z,21.50
2022-08-26T03:38:18.139Z,17.30
2022-08-26T03:39:18.119Z,17.20
2022-08-26T03:40:20.366Z,17.60
2022-08-26T03:41:18.096Z,19.60
2022-08-26T03:42:18.084Z,20.70
2022-08-26T03:43:18.074Z,19.30
2022-08-26T03:44:18.064Z,17.10
2022-08-26T03:45:18.048Z,17.00
2022-08-26T03:46:18.105Z,16.60
2022-08-26T03:47:18.023Z,17.90
2022-08-26T03:48:18.012Z,17.10
2022-08-26T03:49:17.995Z,17.30
2022-08-26T03:50:17.987Z,18.40
2022-08-26T03:51:18.215Z,17.20
2022-08-26T03:52:17.958Z,21.10
2022-08-26T03:53:17.952Z,17.80
2022-08-26T03:54:17.935Z,18.50
2022-08-26T03:55:17.922Z,17.20
2022-08-26T03:56:17.914Z,18.60
2022-08-26T03:57:17.898Z,22.80
2022-08-26T03:58:17.892Z,18.20
2022-08-26T03:59:17.872Z,27.00
2022-08-26T04:00:18.476Z,21.20
2022-08-26T04:01:17.903Z,22.90
2022-08-26T04:02:17.839Z,22.30
2022-08-26T04:03:18.910Z,19.40
2022-08-26T04:04:17.828Z,20.80
2022-08-26T04:05:17.795Z,19.00
2022-08-26T04:06:17.785Z,19.50
2022-08-26T04:07:17.774Z,17.90
2022-08-26T04:08:17.760Z,20.30
2022-08-26T04:09:17.750Z,17.80
2022-08-26T04:10:20.402Z,17.60
2022-08-26T04:11:17.722Z,18.20
2022-08-26T04:12:17.719Z,19.20
2022-08-26T04:13:17.696Z,20.90
2022-08-26T04:14:20.119Z,18.30
2022-08-26T04:15:17.830Z,21.00
2022-08-26T04:16:17.690Z,20.80
2022-08-26T04:17:17.645Z,18.40
2022-08-26T04:18:17.635Z,18.60
2022-08-26T04:19:17.622Z,22.30
2022-08-26T04:20:17.607Z,20.30
2022-08-26T04:21:17.597Z,21.10
2022-08-26T04:22:18.380Z,19.70
2022-08-26T04:23:17.571Z,20.60
2022-08-26T04:24:17.785Z,26.50
2022-08-26T04:25:17.544Z,21.10
2022-08-26T04:26:17.542Z,20.20
2022-08-26T04:27:17.523Z,22.70
2022-08-26T04:28:17.507Z,22.00
2022-08-26T04:29:17.499Z,21.50
2022-08-26T04:30:17.481Z,22.70
2022-08-26T04:31:17.561Z,26.20
2022-08-26T04:32:17.459Z,20.50
2022-08-26T04:33:17.444Z,22.20
2022-08-26T04:34:17.427Z,25.30
2022-08-26T04:35:17.460Z,24.40
2022-08-26T04:36:17.420Z,25.80
2022-08-26T04:37:17.392Z,25.10
2022-08-26T04:38:17.381Z,26.50
2022-08-26T04:39:17.367Z,26.90
2022-08-26T04:40:17.415Z,28.10
2022-08-26T04:41:17.348Z,28.90
2022-08-26T04:42:21.083Z,28.20
2022-08-26T04:43:17.316Z,29.60
2022-08-26T04:44:17.305Z,29.80
2022-08-26T04:45:17.293Z,30.90
2022-08-26T04:46:17.337Z,29.60
2022-08-26T04:47:17.264Z,33.30
2022-08-26T04:48:17.256Z,29.70
2022-08-26T04:49:17.242Z,34.20
2022-08-26T04:50:17.227Z,37.30
2022-08-26T04:51:17.212Z,31.00
2022-08-26T04:52:17.210Z,32.60
2022-08-26T04:53:17.188Z,33.80
2022-08-26T04:54:17.172Z,33.80
2022-08-26T04:55:17.163Z,34.30
2022-08-26T04:56:17.149Z,34.80
2022-08-26T04:57:17.134Z,36.50
2022-08-26T04:58:17.123Z,36.60
2022-08-26T04:59:18.151Z,36.50
2022-08-26T05:00:17.099Z,37.00
2022-08-26T05:01:17.122Z,36.70
2022-08-26T05:02:17.072Z,37.00
2022-08-26T05:03:17.063Z,37.60
2022-08-26T05:04:18.923Z,36.90
2022-08-26T05:05:17.032Z,39.50
2022-08-26T05:06:17.021Z,42.50
2022-08-26T05:07:17.690Z,43.80
2022-08-26T05:08:16.997Z,41.20
2022-08-26T05:09:16.982Z,40.70
2022-08-26T05:10:16.972Z,43.10
2022-08-26T05:11:16.963Z,44.70
2022-08-26T05:12:16.944Z,44.00
2022-08-26T05:13:16.939Z,43.30
2022-08-26T05:14:16.917Z,42.90
2022-08-26T05:15:16.909Z,42.00
2022-08-26T05:16:17.022Z,43.10
2022-08-26T05:17:16.883Z,42.70
2022-08-26T05:18:16.874Z,44.70
2022-08-26T05:19:17.225Z,43.90
2022-08-26T05:20:16.847Z,44.80
2022-08-26T05:21:16.828Z,44.20
2022-08-26T05:22:16.811Z,42.50
2022-08-26T05:23:16.800Z,46.70
2022-08-26T05:24:16.792Z,48.90
2022-08-26T05:25:16.774Z,47.30
2022-08-26T05:26:16.762Z,46.40
2022-08-26T05:27:16.749Z,47.50
2022-08-26T05:28:16.741Z,49.50
2022-08-26T05:29:16.929Z,48.00
2022-08-26T05:30:16.716Z,46.30
2022-08-26T05:31:16.723Z,49.30
2022-08-26T05:32:16.687Z,48.00
2022-08-26T05:33:16.675Z,45.60
2022-08-26T05:34:16.662Z,48.60
2022-08-26T05:35:16.647Z,49.10
2022-08-26T05:36:16.637Z,51.80
2022-08-26T05:37:16.624Z,53.60
2022-08-26T05:38:16.608Z,51.10
2022-08-26T05:39:16.595Z,50.40
2022-08-26T05:40:16.605Z,53.30
2022-08-26T05:41:16.676Z,51.70
2022-08-26T05:42:16.560Z,53.40
2022-08-26T05:43:16.543Z,52.20
2022-08-26T05:44:16.535Z,54.10
2022-08-26T05:45:16.524Z,54.90
2022-08-26T05:46:16.555Z,54.60
2022-08-26T05:47:16.496Z,54.10
2022-08-26T05:48:16.479Z,55.00
2022-08-26T05:49:16.468Z,55.30
2022-08-26T05:50:16.458Z,55.10
2022-08-26T05:51:16.444Z,56.10
2022-08-26T05:52:16.435Z,55.20
2022-08-26T05:53:17.429Z,53.80
2022-08-26T05:54:21.931Z,56.10
2022-08-26T05:55:16.397Z,55.90
2022-08-26T05:56:16.383Z,60.60
2022-08-26T05:57:16.369Z,59.80
2022-08-26T05:58:17.442Z,58.10
2022-08-26T05:59:16.343Z,60.40
2022-08-26T06:00:16.333Z,60.00
2022-08-26T06:01:16.366Z,59.00
2022-08-26T06:02:16.306Z,58.70
2022-08-26T06:03:16.363Z,57.60
2022-08-26T06:04:16.284Z,60.70
2022-08-26T06:05:16.270Z,60.20
2022-08-26T06:06:16.255Z,58.10
2022-08-26T06:07:16.242Z,62.90
2022-08-26T06:08:16.230Z,63.70
2022-08-26T06:09:18.228Z,60.30
2022-08-26T06:10:31.429Z,65.00
2022-08-26T06:11:18.590Z,60.10
2022-08-26T06:12:16.185Z,61.70
2022-08-26T06:13:16.168Z,62.80
2022-08-26T06:14:16.157Z,66.10
2022-08-26T06:15:16.137Z,63.70
2022-08-26T06:16:16.216Z,61.60
2022-08-26T06:17:16.117Z,66.10
2022-08-26T06:18:16.106Z,58.80
2022-08-26T06:19:16.086Z,64.40
2022-08-26T06:20:16.079Z,64.40
2022-08-26T06:21:16.063Z,64.00
2022-08-26T06:22:18.459Z,59.30
2022-08-26T06:23:16.038Z,64.70
2022-08-26T06:24:16.025Z,62.50
2022-08-26T06:25:16.014Z,57.60
2022-08-26T06:26:16.006Z,56.70
2022-08-26T06:27:15.989Z,62.70
2022-08-26T06:28:15.974Z,65.70
2022-08-26T06:29:24.519Z,60.20
2022-08-26T06:30:15.961Z,59.10
2022-08-26T06:31:16.013Z,60.60
2022-08-26T06:32:15.926Z,60.90
2022-08-26T06:33:15.910Z,61.50
2022-08-26T06:34:15.900Z,56.10
2022-08-26T06:35:15.891Z,57.10
2022-08-26T06:36:15.876Z,60.20
2022-08-26T06:37:15.858Z,59.00
2022-08-26T06:38:15.848Z,60.30
2022-08-26T06:39:15.836Z,60.60
2022-08-26T06:40:15.886Z,58.60
2022-08-26T06:41:15.810Z,63.00
2022-08-26T06:42:15.799Z,55.90
2022-08-26T06:43:15.785Z,60.20
2022-08-26T06:44:15.772Z,61.10
2022-08-26T06:45:15.757Z,59.10
2022-08-26T06:46:15.795Z,59.70
2022-08-26T06:47:15.730Z,58.50
2022-08-26T06:48:15.729Z,55.30
2022-08-26T06:49:15.705Z,56.80
2022-08-26T06:50:15.695Z,56.30
2022-08-26T06:51:15.682Z,57.20
2022-08-26T06:52:19.942Z,55.80
2022-08-26T06:53:15.654Z,58.90
2022-08-26T06:54:15.641Z,58.50
2022-08-26T06:55:15.629Z,57.20
2022-08-26T06:56:15.618Z,60.20
2022-08-26T06:57:16.823Z,52.20
2022-08-26T06:58:15.594Z,59.80
2022-08-26T06:59:15.577Z,58.30
2022-08-26T07:00:15.576Z,59.50
2022-08-26T07:01:15.574Z,54.60
2022-08-26T07:02:15.634Z,55.20
2022-08-26T07:03:15.605Z,54.90
2022-08-26T07:04:15.925Z,51.70
2022-08-26T07:05:15.504Z,58.70
2022-08-26T07:06:15.494Z,54.20
2022-08-26T07:07:15.482Z,55.60
2022-08-26T07:08:15.468Z,57.80
2022-08-26T07:09:15.452Z,58.40
2022-08-26T07:10:15.442Z,53.70
2022-08-26T07:11:15.428Z,57.00
2022-08-26T07:12:15.413Z,56.60
2022-08-26T07:13:15.400Z,55.40
2022-08-26T07:14:15.387Z,55.10
2022-08-26T07:15:15.378Z,53.20
2022-08-26T07:16:15.414Z,52.20
2022-08-26T07:17:15.349Z,56.70
2022-08-26T07:18:15.334Z,55.00
2022-08-26T07:19:15.324Z,55.80
2022-08-26T07:20:15.318Z,53.60
2022-08-26T07:21:15.303Z,52.00
2022-08-26T07:22:15.289Z,56.20
2022-08-26T07:23:15.276Z,51.50
2022-08-26T07:24:15.264Z,54.00
2022-08-26T07:25:15.253Z,52.90
2022-08-26T07:26:15.241Z,51.40
2022-08-26T07:27:15.225Z,51.80
2022-08-26T07:28:15.212Z,52.90
2022-08-26T07:29:15.199Z,52.70
2022-08-26T07:30:15.188Z,51.10
2022-08-26T07:31:15.236Z,54.30
2022-08-26T07:32:15.168Z,51.30
2022-08-26T07:33:15.153Z,50.60
2022-08-26T07:34:15.141Z,51.50
2022-08-26T07:35:15.125Z,49.30
2022-08-26T07:36:15.121Z,51.00
2022-08-26T07:37:15.103Z,54.80
2022-08-26T07:38:15.090Z,51.60
2022-08-26T07:39:15.079Z,51.80
2022-08-26T07:40:15.091Z,48.10
2022-08-26T07:41:15.053Z,51.20
2022-08-26T07:42:15.050Z,49.90
2022-08-26T07:43:15.023Z,48.60
2022-08-26T07:44:15.016Z,50.20
2022-08-26T07:45:14.999Z,51.40
2022-08-26T07:46:16.541Z,50.40
2022-08-26T07:47:24.843Z,49.00
2022-08-26T07:48:14.968Z,50.60
2022-08-26T07:49:15.013Z,52.70
2022-08-26T07:50:14.939Z,49.30
2022-08-26T07:51:14.927Z,50.30
2022-08-26T07:52:14.919Z,50.40
2022-08-26T07:53:14.901Z,47.00
2022-08-26T07:54:14.889Z,47.30
2022-08-26T07:55:14.876Z,45.30
2022-08-26T07:56:14.867Z,47.00
2022-08-26T07:57:14.852Z,46.60
2022-08-26T07:58:14.841Z,46.10
2022-08-26T07:59:14.960Z,46.80
2022-08-26T08:00:14.815Z,50.50
2022-08-26T08:01:14.874Z,48.20
2022-08-26T08:02:14.793Z,46.70
2022-08-26T08:03:14.778Z,47.00
2022-08-26T08:04:14.767Z,47.10
2022-08-26T08:05:14.784Z,49.50
2022-08-26T08:06:14.746Z,46.80
2022-08-26T08:07:14.731Z,49.40
2022-08-26T08:08:27.572Z,48.30
2022-08-26T08:09:14.710Z,47.50
2022-08-26T08:10:14.696Z,49.00
2022-08-26T08:11:14.686Z,47.90
2022-08-26T08:12:14.674Z,47.60
2022-08-26T08:13:14.662Z,47.40
2022-08-26T08:14:14.651Z,46.10
2022-08-26T08:15:14.638Z,47.30
2022-08-26T08:16:14.626Z,45.20
2022-08-26T08:17:14.615Z,44.10
2022-08-26T08:18:15.497Z,42.80
2022-08-26T08:19:14.583Z,46.50
2022-08-26T08:20:14.585Z,45.80
2022-08-26T08:21:21.875Z,47.30
2022-08-26T08:22:17.857Z,49.70
2022-08-26T08:23:14.536Z,48.50
2022-08-26T08:24:14.530Z,45.50
2022-08-26T08:25:14.518Z,50.90
2022-08-26T08:26:14.505Z,45.60
2022-08-26T08:27:14.489Z,50.20
2022-08-26T08:28:14.478Z,45.30
2022-08-26T08:29:14.477Z,45.40
2022-08-26T08:30:14.456Z,45.10
2022-08-26T08:31:14.519Z,44.30
2022-08-26T08:32:15.461Z,45.90
2022-08-26T08:33:14.419Z,42.00
2022-08-26T08:34:14.405Z,44.00
2022-08-26T08:35:14.399Z,42.70
2022-08-26T08:36:14.385Z,43.50
2022-08-26T08:37:14.373Z,44.90
2022-08-26T08:38:14.357Z,41.80
2022-08-26T08:39:14.362Z,42.50
2022-08-26T08:40:14.358Z,44.10
2022-08-26T08:41:14.348Z,47.50
2022-08-26T08:42:14.311Z,41.70
2022-08-26T08:43:14.301Z,46.60
2022-08-26T08:44:14.338Z,47.70
2022-08-26T08:45:14.274Z,44.50
2022-08-26T08:46:14.339Z,48.40
2022-08-26T08:47:14.255Z,43.50
2022-08-26T08:48:14.268Z,46.20
2022-08-26T08:49:14.259Z,44.30
2022-08-26T08:50:14.215Z,45.80
2022-08-26T08:51:14.209Z,46.50
2022-08-26T08:52:14.196Z,57.20
2022-08-26T08:53:14.338Z,63.60
2022-08-26T08:54:14.172Z,53.40
2022-08-26T08:55:17.756Z,47.00
2022-08-26T08:56:14.150Z,46.50
2022-08-26T08:57:14.151Z,44.30
2022-08-26T08:58:14.131Z,43.50
2022-08-26T08:59:14.115Z,42.30
2022-08-26T09:00:14.104Z,39.30
2022-08-26T09:01:14.179Z,43.80
2022-08-26T09:02:14.147Z,42.70
2022-08-26T09:03:14.068Z,42.30
2022-08-26T09:04:14.056Z,43.30
2022-08-26T09:05:15.129Z,40.60
2022-08-26T09:06:14.035Z,40.70
2022-08-26T09:07:14.018Z,43.00
2022-08-26T09:08:14.009Z,42.90
2022-08-26T09:09:13.999Z,41.30
2022-08-26T09:10:13.986Z,41.60
2022-08-26T09:11:13.973Z,42.70
2022-08-26T09:12:13.969Z,42.10
2022-08-26T09:13:17.051Z,43.70
2022-08-26T09:14:13.940Z,42.50
2022-08-26T09:15:13.926Z,41.00
2022-08-26T09:16:13.917Z,42.10
2022-08-26T09:17:13.905Z,43.00
2022-08-26T09:18:13.893Z,43.50
2022-08-26T09:19:13.877Z,44.20
2022-08-26T09:20:13.873Z,43.60
2022-08-26T09:21:13.861Z,44.80
2022-08-26T09:22:13.906Z,47.20
2022-08-26T09:23:13.835Z,46.70
2022-08-26T09:24:14.147Z,45.30
2022-08-26T09:25:13.809Z,45.30
2022-08-26T09:26:13.794Z,42.20
2022-08-26T09:27:13.787Z,42.30
2022-08-26T09:28:13.779Z,41.50
2022-08-26T09:29:13.804Z,41.30
2022-08-26T09:30:13.752Z,42.60
2022-08-26T09:31:13.840Z,41.40
2022-08-26T09:32:13.726Z,39.90
2022-08-26T09:33:13.886Z,40.40
2022-08-26T09:34:17.279Z,43.80
2022-08-26T09:35:13.688Z,41.10
2022-08-26T09:36:13.682Z,41.20
2022-08-26T09:37:13.669Z,43.60
2022-08-26T09:38:13.905Z,43.70
2022-08-26T09:39:13.652Z,42.30
2022-08-26T09:40:13.713Z,47.80
2022-08-26T09:41:13.624Z,43.00
2022-08-26T09:42:14.181Z,43.10
2022-08-26T09:43:13.594Z,44.20
2022-08-26T09:44:14.547Z,42.90
2022-08-26T09:45:13.572Z,42.60
2022-08-26T09:46:13.649Z,41.30
2022-08-26T09:47:13.547Z,40.70
2022-08-26T09:48:13.541Z,43.70
2022-08-26T09:49:13.525Z,44.50
2022-08-26T09:50:13.515Z,41.60
2022-08-26T09:51:13.506Z,44.20
2022-08-26T09:52:13.493Z,43.20
2022-08-26T09:53:13.480Z,42.60
2022-08-26T09:54:13.471Z,43.10
2022-08-26T09:55:13.458Z,39.80
2022-08-26T09:56:13.448Z,40.70
2022-08-26T09:57:13.444Z,41.00
2022-08-26T09:58:13.417Z,44.20
2022-08-26T09:59:13.412Z,43.10
2022-08-26T10:00:13.399Z,42.10
2022-08-26T10:01:13.404Z,41.20
2022-08-26T10:02:13.375Z,43.00
2022-08-26T10:03:15.691Z,41.20
2022-08-26T10:04:13.453Z,38.70
2022-08-26T10:05:13.345Z,40.10
2022-08-26T10:06:13.332Z,39.50
2022-08-26T10:07:13.316Z,41.10
2022-08-26T10:08:13.301Z,39.40
2022-08-26T10:09:13.291Z,41.30
2022-08-26T10:10:13.284Z,40.30
2022-08-26T10:11:13.269Z,41.80
2022-08-26T10:12:13.256Z,38.70
2022-08-26T10:13:13.245Z,38.70
2022-08-26T10:14:13.234Z,38.60
2022-08-26T10:15:13.221Z,40.30
2022-08-26T10:16:13.217Z,41.40
2022-08-26T10:17:13.200Z,40.10
2022-08-26T10:18:13.186Z,40.60
2022-08-26T10:19:13.219Z,40.00
2022-08-26T10:20:22.411Z,38.90
2022-08-26T10:21:13.155Z,41.50
2022-08-26T10:22:13.143Z,38.70
2022-08-26T10:23:14.085Z,39.00
2022-08-26T10:24:13.121Z,37.80
2022-08-26T10:25:13.115Z,37.90
2022-08-26T10:26:13.096Z,39.20
2022-08-26T10:27:13.086Z,41.70
2022-08-26T10:28:13.077Z,36.40
2022-08-26T10:29:13.084Z,38.50
2022-08-26T10:30:13.053Z,36.80
2022-08-26T10:31:13.036Z,39.70
2022-08-26T10:32:13.841Z,37.30
2022-08-26T10:33:13.017Z,36.50
2022-08-26T10:34:13.954Z,36.10
2022-08-26T10:35:12.996Z,38.00
2022-08-26T10:36:15.200Z,35.30
2022-08-26T10:37:14.209Z,34.40
2022-08-26T10:38:12.972Z,35.10
2022-08-26T10:39:12.952Z,33.40
2022-08-26T10:40:13.019Z,35.60
2022-08-26T10:41:13.115Z,35.10
2022-08-26T10:42:12.913Z,35.40
2022-08-26T10:43:12.908Z,34.00
2022-08-26T10:44:12.893Z,36.30
2022-08-26T10:45:15.142Z,35.50
2022-08-26T10:46:12.947Z,33.00
2022-08-26T10:47:12.862Z,34.70
2022-08-26T10:48:12.846Z,32.40
2022-08-26T10:49:12.844Z,33.50
2022-08-26T10:50:12.907Z,35.30
2022-08-26T10:51:12.820Z,30.20
2022-08-26T10:52:16.583Z,34.40
2022-08-26T10:53:12.795Z,31.70
2022-08-26T10:54:12.781Z,32.50
2022-08-26T10:55:12.775Z,32.00
2022-08-26T10:56:18.678Z,32.20
2022-08-26T10:57:12.751Z,31.70
2022-08-26T10:58:12.930Z,33.70
2022-08-26T10:59:12.760Z,33.10
2022-08-26T11:00:12.724Z,32.10
2022-08-26T11:01:12.760Z,34.00
2022-08-26T11:02:12.697Z,32.90
2022-08-26T11:03:22.529Z,40.70
2022-08-26T11:04:12.766Z,34.50
2022-08-26T11:05:12.661Z,34.10
2022-08-26T11:06:12.657Z,33.10
2022-08-26T11:07:12.647Z,34.10
2022-08-26T11:08:12.626Z,33.60
2022-08-26T11:09:12.618Z,34.30
2022-08-26T11:10:12.607Z,34.50
2022-08-26T11:11:12.595Z,32.20
2022-08-26T11:12:12.586Z,31.20
2022-08-26T11:13:12.578Z,31.30
2022-08-26T11:14:12.562Z,32.10
2022-08-26T11:15:12.554Z,30.60
2022-08-26T11:16:12.596Z,30.20
2022-08-26T11:17:12.532Z,30.70
2022-08-26T11:18:12.528Z,31.10
2022-08-26T11:19:12.510Z,31.90
2022-08-26T11:20:13.619Z,29.20
2022-08-26T11:21:12.490Z,28.00
2022-08-26T11:22:12.483Z,28.00
2022-08-26T11:23:12.470Z,28.20
2022-08-26T11:24:12.456Z,28.30
2022-08-26T11:25:12.443Z,28.40
2022-08-26T11:26:12.436Z,28.60
2022-08-26T11:27:12.422Z,27.60
2022-08-26T11:28:12.414Z,27.40
2022-08-26T11:29:13.631Z,25.90
2022-08-26T11:30:12.387Z,26.80
2022-08-26T11:31:12.438Z,26.10
2022-08-26T11:32:12.370Z,26.20
2022-08-26T11:33:12.364Z,29.20
2022-08-26T11:34:12.353Z,26.80
2022-08-26T11:35:12.341Z,28.40
2022-08-26T11:36:12.599Z,26.30
2022-08-26T11:37:12.339Z,26.20
2022-08-26T11:38:12.308Z,28.50
2022-08-26T11:39:12.299Z,30.80
2022-08-26T11:40:12.361Z,28.40
2022-08-26T11:41:12.286Z,28.80
2022-08-26T11:42:12.268Z,27.50
2022-08-26T11:43:12.258Z,27.20
2022-08-26T11:44:12.249Z,27.60
2022-08-26T11:45:12.240Z,28.40
2022-08-26T11:46:12.326Z,28.00
2022-08-26T11:47:12.215Z,28.60
2022-08-26T11:48:12.207Z,27.20
2022-08-26T11:49:12.195Z,29.00
2022-08-26T11:50:12.205Z,27.50
2022-08-26T11:51:12.176Z,28.60
2022-08-26T11:52:12.166Z,27.90
2022-08-26T11:53:12.152Z,24.50
2022-08-26T11:54:12.141Z,25.50
2022-08-26T11:55:12.133Z,25.80
2022-08-26T11:56:12.124Z,24.20
2022-08-26T11:57:12.123Z,25.00
2022-08-26T11:58:12.106Z,25.40
2022-08-26T11:59:12.088Z,26.10
2022-08-26T12:00:14.257Z,24.10
2022-08-26T12:01:12.070Z,25.40
2022-08-26T12:02:12.057Z,24.60
2022-08-26T12:03:12.357Z,22.50
2022-08-26T12:04:12.204Z,25.90
2022-08-26T12:05:12.029Z,25.00
2022-08-26T12:06:12.021Z,22.20
2022-08-26T12:07:12.008Z,21.70
2022-08-26T12:08:11.991Z,22.80
2022-08-26T12:09:11.985Z,24.80
2022-08-26T12:10:11.975Z,21.50
2022-08-26T12:11:11.967Z,20.90
2022-08-26T12:12:12.149Z,21.60
2022-08-26T12:13:11.948Z,20.60
2022-08-26T12:14:11.941Z,20.60
2022-08-26T12:15:11.923Z,20.60
2022-08-26T12:16:11.940Z,22.70
2022-08-26T12:17:11.904Z,19.00
2022-08-26T12:18:11.896Z,20.20
2022-08-26T12:19:11.883Z,18.60
2022-08-26T12:20:11.873Z,18.70
2022-08-26T12:21:11.861Z,18.20
2022-08-26T12:22:11.854Z,20.60
2022-08-26T12:23:11.844Z,20.10
2022-08-26T12:24:11.836Z,18.40
2022-08-26T12:25:11.829Z,19.30
2022-08-26T12:26:11.820Z,18.40
2022-08-26T12:27:11.802Z,19.90
2022-08-26T12:28:11.799Z,19.40
2022-08-26T12:29:19.770Z,18.10
2022-08-26T12:30:12.357Z,17.80
2022-08-26T12:31:11.795Z,18.50
2022-08-26T12:32:11.754Z,18.20
2022-08-26T12:33:22.250Z,19.10
2022-08-26T12:34:18.007Z,18.40
2022-08-26T12:35:11.731Z,19.50
2022-08-26T12:36:11.713Z,18.20
2022-08-26T12:37:11.707Z,17.90
2022-08-26T12:38:11.696Z,18.70
2022-08-26T12:39:11.687Z,19.30
2022-08-26T12:40:11.985Z,20.50
2022-08-26T12:41:11.668Z,19.40
2022-08-26T12:42:11.665Z,21.10
2022-08-26T12:43:11.645Z,20.60
2022-08-26T12:44:11.636Z,19.70
2022-08-26T12:45:11.628Z,19.50
2022-08-26T12:46:11.619Z,18.30
2022-08-26T12:47:11.607Z,19.00
2022-08-26T12:48:11.594Z,18.40
2022-08-26T12:49:11.585Z,18.50
2022-08-26T12:50:11.575Z,18.20
2022-08-26T12:51:11.569Z,17.40
2022-08-26T12:52:11.562Z,20.50